sensor_id;sensor_type;location;lat;lon;timestamp;pressure;altitude;pressure_sealevel;temperature;humidity
50682;BME280;36779;52.168;20.878;2023-02-04T00:01:28;99815.74;;;-1.66;78.69
50682;BME280;36779;52.168;20.878;2023-02-04T00:03:57;99825.19;;;-1.70;78.53
50682;BME280;36779;52.168;20.878;2023-02-04T00:06:26;99831.63;;;-1.72;78.52
50682;BME280;36779;52.168;20.878;2023-02-04T00:08:56;99837.30;;;-1.74;78.58
50682;BME280;36779;52.168;20.878;2023-02-04T00:11:26;99844.61;;;-1.76;78.59
50682;BME280;36779;52.168;20.878;2023-02-04T00:13:56;99848.02;;;-1.78;78.72
50682;BME280;36779;52.168;20.878;2023-02-04T00:16:25;99860.83;;;-1.79;78.66
50682;BME280;36779;52.168;20.878;2023-02-04T00:18:55;99868.73;;;-1.80;78.71
50682;BME280;36779;52.168;20.878;2023-02-04T00:21:23;99881.23;;;-1.80;78.79
50682;BME280;36779;52.168;20.878;2023-02-04T00:23:53;99885.43;;;-1.80;78.66
50682;BME280;36779;52.168;20.878;2023-02-04T00:26:24;99894.14;;;-1.80;78.73
50682;BME280;36779;52.168;20.878;2023-02-04T00:28:53;99896.98;;;-1.81;78.78
50682;BME280;36779;52.168;20.878;2023-02-04T00:31:22;99899.85;;;-1.82;78.72
50682;BME280;36779;52.168;20.878;2023-02-04T00:33:51;99908.27;;;-1.83;78.74
50682;BME280;36779;52.168;20.878;2023-02-04T00:36:20;99913.77;;;-1.85;78.68
50682;BME280;36779;52.168;20.878;2023-02-04T00:38:49;99922.73;;;-1.85;78.79
50682;BME280;36779;52.168;20.878;2023-02-04T00:41:18;99929.02;;;-1.84;78.77
50682;BME280;36779;52.168;20.878;2023-02-04T00:43:47;99936.87;;;-1.84;78.73
50682;BME280;36779;52.168;20.878;2023-02-04T00:46:17;99942.22;;;-1.85;78.66
50682;BME280;36779;52.168;20.878;2023-02-04T00:48:46;99946.06;;;-1.86;78.72
50682;BME280;36779;52.168;20.878;2023-02-04T00:51:15;99957.95;;;-1.87;78.74
50682;BME280;36779;52.168;20.878;2023-02-04T00:53:44;99964.35;;;-1.89;78.60
50682;BME280;36779;52.168;20.878;2023-02-04T00:56:15;99976.79;;;-1.90;78.79
50682;BME280;36779;52.168;20.878;2023-02-04T00:58:44;99986.00;;;-1.93;78.69
50682;BME280;36779;52.168;20.878;2023-02-04T01:01:14;99997.54;;;-1.93;78.82
50682;BME280;36779;52.168;20.878;2023-02-04T01:03:43;100004.48;;;-1.93;78.77
50682;BME280;36779;52.168;20.878;2023-02-04T01:06:13;100009.56;;;-1.94;78.71
50682;BME280;36779;52.168;20.878;2023-02-04T01:08:42;100015.52;;;-1.94;78.84
50682;BME280;36779;52.168;20.878;2023-02-04T01:11:11;100025.79;;;-1.94;78.86
50682;BME280;36779;52.168;20.878;2023-02-04T01:13:40;100032.39;;;-1.94;78.82
50682;BME280;36779;52.168;20.878;2023-02-04T01:16:09;100041.50;;;-1.95;78.91
50682;BME280;36779;52.168;20.878;2023-02-04T01:18:39;100039.48;;;-1.96;78.94
50682;BME280;36779;52.168;20.878;2023-02-04T01:21:08;100047.84;;;-1.96;78.85
50682;BME280;36779;52.168;20.878;2023-02-04T01:23:37;100058.79;;;-1.95;79.00
50682;BME280;36779;52.168;20.878;2023-02-04T01:26:07;100070.36;;;-1.97;78.91
50682;BME280;36779;52.168;20.878;2023-02-04T01:28:36;100076.39;;;-1.99;78.90
50682;BME280;36779;52.168;20.878;2023-02-04T01:31:05;100087.11;;;-1.97;79.16
50682;BME280;36779;52.168;20.878;2023-02-04T01:33:34;100092.45;;;-1.96;78.95
50682;BME280;36779;52.168;20.878;2023-02-04T01:36:03;100103.22;;;-1.95;79.03
50682;BME280;36779;52.168;20.878;2023-02-04T01:38:32;100107.27;;;-1.96;79.04
50682;BME280;36779;52.168;20.878;2023-02-04T01:41:02;100122.91;;;-1.96;78.98
50682;BME280;36779;52.168;20.878;2023-02-04T01:43:36;100129.27;;;-1.94;79.00
50682;BME280;36779;52.168;20.878;2023-02-04T01:46:06;100143.21;;;-1.92;79.03
50682;BME280;36779;52.168;20.878;2023-02-04T01:48:36;100151.67;;;-1.91;78.98
50682;BME280;36779;52.168;20.878;2023-02-04T01:51:08;100164.55;;;-1.90;78.96
50682;BME280;36779;52.168;20.878;2023-02-04T01:53:39;100179.70;;;-1.90;78.97
50682;BME280;36779;52.168;20.878;2023-02-04T01:56:15;100185.09;;;-1.90;78.99
50682;BME280;36779;52.168;20.878;2023-02-04T01:58:45;100197.55;;;-1.88;78.99
50682;BME280;36779;52.168;20.878;2023-02-04T02:01:32;100201.45;;;-1.87;79.06
50682;BME280;36779;52.168;20.878;2023-02-04T02:04:01;100209.61;;;-1.86;79.15
50682;BME280;36779;52.168;20.878;2023-02-04T02:06:31;100215.90;;;-1.86;79.09
50682;BME280;36779;52.168;20.878;2023-02-04T02:09:01;100220.73;;;-1.88;79.22
50682;BME280;36779;52.168;20.878;2023-02-04T02:11:31;100228.52;;;-1.91;79.07
50682;BME280;36779;52.168;20.878;2023-02-04T02:14:00;100236.48;;;-1.93;79.17
50682;BME280;36779;52.168;20.878;2023-02-04T02:16:30;100241.74;;;-1.94;79.15
50682;BME280;36779;52.168;20.878;2023-02-04T02:19:00;100254.34;;;-1.94;79.12
50682;BME280;36779;52.168;20.878;2023-02-04T02:21:36;100272.06;;;-1.94;79.14
50682;BME280;36779;52.168;20.878;2023-02-04T02:24:25;100284.22;;;-1.93;79.02
50682;BME280;36779;52.168;20.878;2023-02-04T02:26:55;100296.20;;;-1.92;79.04
50682;BME280;36779;52.168;20.878;2023-02-04T02:29:26;100309.27;;;-1.92;79.13
50682;BME280;36779;52.168;20.878;2023-02-04T02:31:59;100316.77;;;-1.93;79.07
50682;BME280;36779;52.168;20.878;2023-02-04T02:34:31;100324.73;;;-1.92;79.15
50682;BME280;36779;52.168;20.878;2023-02-04T02:37:01;100334.98;;;-1.91;79.06
50682;BME280;36779;52.168;20.878;2023-02-04T02:39:31;100346.82;;;-1.91;79.03
50682;BME280;36779;52.168;20.878;2023-02-04T02:42:01;100352.92;;;-1.91;79.14
50682;BME280;36779;52.168;20.878;2023-02-04T02:44:32;100362.98;;;-1.91;79.17
50682;BME280;36779;52.168;20.878;2023-02-04T02:47:02;100378.31;;;-1.91;79.09
50682;BME280;36779;52.168;20.878;2023-02-04T02:49:32;100381.83;;;-1.91;79.08
50682;BME280;36779;52.168;20.878;2023-02-04T02:52:02;100387.35;;;-1.90;79.24
50682;BME280;36779;52.168;20.878;2023-02-04T02:54:31;100398.81;;;-1.90;79.14
50682;BME280;36779;52.168;20.878;2023-02-04T02:57:04;100409.64;;;-1.90;79.16
50682;BME280;36779;52.168;20.878;2023-02-04T02:59:38;100421.14;;;-1.90;79.16
50682;BME280;36779;52.168;20.878;2023-02-04T03:02:09;100434.45;;;-1.91;79.12
50682;BME280;36779;52.168;20.878;2023-02-04T03:04:41;100438.50;;;-1.92;79.06
50682;BME280;36779;52.168;20.878;2023-02-04T03:07:14;100447.64;;;-1.91;79.06
50682;BME280;36779;52.168;20.878;2023-02-04T03:09:43;100456.31;;;-1.90;79.15
50682;BME280;36779;52.168;20.878;2023-02-04T03:12:12;100460.83;;;-1.90;79.12
50682;BME280;36779;52.168;20.878;2023-02-04T03:14:41;100470.08;;;-1.90;79.10
50682;BME280;36779;52.168;20.878;2023-02-04T03:17:11;100477.05;;;-1.90;79.29
50682;BME280;36779;52.168;20.878;2023-02-04T03:19:40;100485.25;;;-1.90;79.14
50682;BME280;36779;52.168;20.878;2023-02-04T03:22:10;100496.35;;;-1.89;79.18
50682;BME280;36779;52.168;20.878;2023-02-04T03:24:39;100500.17;;;-1.89;79.18
50682;BME280;36779;52.168;20.878;2023-02-04T03:27:08;100506.71;;;-1.87;79.19
50682;BME280;36779;52.168;20.878;2023-02-04T03:29:42;100521.30;;;-1.87;79.26
50682;BME280;36779;52.168;20.878;2023-02-04T03:32:12;100531.27;;;-1.87;79.16
50682;BME280;36779;52.168;20.878;2023-02-04T03:34:41;100546.58;;;-1.87;79.09
50682;BME280;36779;52.168;20.878;2023-02-04T03:37:09;100558.66;;;-1.88;79.13
50682;BME280;36779;52.168;20.878;2023-02-04T03:39:39;100569.42;;;-1.87;79.17
50682;BME280;36779;52.168;20.878;2023-02-04T03:42:09;100577.05;;;-1.86;79.10
50682;BME280;36779;52.168;20.878;2023-02-04T03:44:39;100586.34;;;-1.88;79.13
50682;BME280;36779;52.168;20.878;2023-02-04T03:47:10;100595.60;;;-1.88;79.13
50682;BME280;36779;52.168;20.878;2023-02-04T03:49:39;100603.84;;;-1.90;79.27
50682;BME280;36779;52.168;20.878;2023-02-04T03:52:08;100610.54;;;-1.91;79.19
50682;BME280;36779;52.168;20.878;2023-02-04T03:54:37;100619.27;;;-1.92;79.11
50682;BME280;36779;52.168;20.878;2023-02-04T03:57:06;100626.45;;;-1.92;79.07
50682;BME280;36779;52.168;20.878;2023-02-04T03:59:35;100635.19;;;-1.93;79.09
50682;BME280;36779;52.168;20.878;2023-02-04T04:02:04;100639.45;;;-1.95;79.13
50682;BME280;36779;52.168;20.878;2023-02-04T04:04:34;100644.69;;;-1.98;78.93
50682;BME280;36779;52.168;20.878;2023-02-04T04:07:04;100654.98;;;-2.02;78.94
50682;BME280;36779;52.168;20.878;2023-02-04T04:09:33;100667.05;;;-2.06;78.92
50682;BME280;36779;52.168;20.878;2023-02-04T04:12:03;100673.56;;;-2.12;78.83
50682;BME280;36779;52.168;20.878;2023-02-04T04:14:32;100678.20;;;-2.18;78.90
50682;BME280;36779;52.168;20.878;2023-02-04T04:17:02;100689.05;;;-2.22;78.94
50682;BME280;36779;52.168;20.878;2023-02-04T04:19:31;100701.61;;;-2.27;78.95
50682;BME280;36779;52.168;20.878;2023-02-04T04:22:00;100702.67;;;-2.30;78.89
50682;BME280;36779;52.168;20.878;2023-02-04T04:24:30;100712.92;;;-2.33;78.93
50682;BME280;36779;52.168;20.878;2023-02-04T04:26:59;100718.63;;;-2.37;79.01
50682;BME280;36779;52.168;20.878;2023-02-04T04:29:31;100729.88;;;-2.39;78.88
50682;BME280;36779;52.168;20.878;2023-02-04T04:31:59;100739.04;;;-2.41;78.86
50682;BME280;36779;52.168;20.878;2023-02-04T04:34:29;100746.09;;;-2.43;78.97
50682;BME280;36779;52.168;20.878;2023-02-04T04:36:58;100764.30;;;-2.46;78.90
50682;BME280;36779;52.168;20.878;2023-02-04T04:39:27;100773.10;;;-2.48;78.92
50682;BME280;36779;52.168;20.878;2023-02-04T04:41:57;100789.48;;;-2.52;78.94
50682;BME280;36779;52.168;20.878;2023-02-04T04:44:26;100797.75;;;-2.54;78.93
50682;BME280;36779;52.168;20.878;2023-02-04T04:46:55;100804.06;;;-2.55;78.98
50682;BME280;36779;52.168;20.878;2023-02-04T04:49:27;100803.80;;;-2.53;79.09
50682;BME280;36779;52.168;20.878;2023-02-04T04:51:58;100809.01;;;-2.52;78.96
50682;BME280;36779;52.168;20.878;2023-02-04T04:54:27;100816.84;;;-2.52;79.01
50682;BME280;36779;52.168;20.878;2023-02-04T04:56:57;100820.48;;;-2.52;79.03
50682;BME280;36779;52.168;20.878;2023-02-04T04:59:25;100826.70;;;-2.51;79.10
50682;BME280;36779;52.168;20.878;2023-02-04T05:01:57;100835.52;;;-2.50;78.96
50682;BME280;36779;52.168;20.878;2023-02-04T05:04:26;100841.77;;;-2.49;79.05
50682;BME280;36779;52.168;20.878;2023-02-04T05:06:54;100855.09;;;-2.48;79.04
50682;BME280;36779;52.168;20.878;2023-02-04T05:09:23;100859.91;;;-2.47;79.17
50682;BME280;36779;52.168;20.878;2023-02-04T05:11:52;100866.58;;;-2.44;79.24
50682;BME280;36779;52.168;20.878;2023-02-04T05:14:22;100872.40;;;-2.42;79.17
50682;BME280;36779;52.168;20.878;2023-02-04T05:16:50;100882.18;;;-2.39;79.21
50682;BME280;36779;52.168;20.878;2023-02-04T05:19:19;100890.58;;;-2.36;79.17
50682;BME280;36779;52.168;20.878;2023-02-04T05:21:48;100898.61;;;-2.32;79.20
50682;BME280;36779;52.168;20.878;2023-02-04T05:24:17;100901.77;;;-2.29;79.22
50682;BME280;36779;52.168;20.878;2023-02-04T05:26:46;100914.34;;;-2.26;79.30
50682;BME280;36779;52.168;20.878;2023-02-04T05:29:14;100923.50;;;-2.24;79.17
50682;BME280;36779;52.168;20.878;2023-02-04T05:31:44;100928.54;;;-2.24;79.22
50682;BME280;36779;52.168;20.878;2023-02-04T05:34:13;100932.18;;;-2.24;79.25
50682;BME280;36779;52.168;20.878;2023-02-04T05:36:42;100934.40;;;-2.22;79.27
50682;BME280;36779;52.168;20.878;2023-02-04T05:39:12;100941.70;;;-2.22;79.26
50682;BME280;36779;52.168;20.878;2023-02-04T05:41:40;100953.80;;;-2.21;79.24
50682;BME280;36779;52.168;20.878;2023-02-04T05:44:09;100959.50;;;-2.19;79.31
50682;BME280;36779;52.168;20.878;2023-02-04T05:46:38;100972.48;;;-2.17;79.27
50682;BME280;36779;52.168;20.878;2023-02-04T05:49:08;100978.16;;;-2.16;79.29
50682;BME280;36779;52.168;20.878;2023-02-04T05:51:37;100984.27;;;-2.16;79.15
50682;BME280;36779;52.168;20.878;2023-02-04T05:54:06;100990.54;;;-2.16;79.28
50682;BME280;36779;52.168;20.878;2023-02-04T05:56:35;100999.05;;;-2.16;79.20
50682;BME280;36779;52.168;20.878;2023-02-04T05:59:04;101015.21;;;-2.15;79.10
50682;BME280;36779;52.168;20.878;2023-02-04T06:01:33;101026.52;;;-2.15;79.17
50682;BME280;36779;52.168;20.878;2023-02-04T06:04:03;101035.97;;;-2.16;79.11
50682;BME280;36779;52.168;20.878;2023-02-04T06:06:32;101045.60;;;-2.17;79.16
50682;BME280;36779;52.168;20.878;2023-02-04T06:09:02;101061.58;;;-2.20;79.06
50682;BME280;36779;52.168;20.878;2023-02-04T06:11:31;101066.39;;;-2.22;79.12
50682;BME280;36779;52.168;20.878;2023-02-04T06:14:01;101075.83;;;-2.24;79.20
50682;BME280;36779;52.168;20.878;2023-02-04T06:16:31;101086.66;;;-2.24;79.14
50682;BME280;36779;52.168;20.878;2023-02-04T06:19:00;101092.59;;;-2.24;79.17
50682;BME280;36779;52.168;20.878;2023-02-04T06:21:30;101096.67;;;-2.27;79.08
50682;BME280;36779;52.168;20.878;2023-02-04T06:23:59;101107.95;;;-2.29;79.01
50682;BME280;36779;52.168;20.878;2023-02-04T06:26:29;101110.38;;;-2.33;79.04
50682;BME280;36779;52.168;20.878;2023-02-04T06:28:58;101118.89;;;-2.38;79.05
50682;BME280;36779;52.168;20.878;2023-02-04T06:31:27;101132.09;;;-2.41;78.96
50682;BME280;36779;52.168;20.878;2023-02-04T06:33:58;101141.45;;;-2.45;79.00
50682;BME280;36779;52.168;20.878;2023-02-04T06:36:27;101144.38;;;-2.48;78.99
50682;BME280;36779;52.168;20.878;2023-02-04T06:38:59;101149.52;;;-2.51;78.94
50682;BME280;36779;52.168;20.878;2023-02-04T06:41:30;101155.20;;;-2.53;78.92
50682;BME280;36779;52.168;20.878;2023-02-04T06:43:58;101160.02;;;-2.56;78.87
50682;BME280;36779;52.168;20.878;2023-02-04T06:46:27;101162.48;;;-2.62;78.90
50682;BME280;36779;52.168;20.878;2023-02-04T06:49:02;101173.48;;;-2.67;78.83
50682;BME280;36779;52.168;20.878;2023-02-04T06:51:31;101181.19;;;-2.73;78.74
50682;BME280;36779;52.168;20.878;2023-02-04T06:54:01;101185.37;;;-2.78;78.73
50682;BME280;36779;52.168;20.878;2023-02-04T06:56:30;101197.71;;;-2.83;78.69
50682;BME280;36779;52.168;20.878;2023-02-04T06:58:59;101206.02;;;-2.86;78.75
50682;BME280;36779;52.168;20.878;2023-02-04T07:01:31;101213.64;;;-2.90;78.66
50682;BME280;36779;52.168;20.878;2023-02-04T07:04:01;101221.63;;;-2.94;78.67
50682;BME280;36779;52.168;20.878;2023-02-04T07:06:31;101230.08;;;-2.97;78.64
50682;BME280;36779;52.168;20.878;2023-02-04T07:09:01;101237.85;;;-3.00;78.69
50682;BME280;36779;52.168;20.878;2023-02-04T07:11:32;101244.18;;;-3.02;78.74
50682;BME280;36779;52.168;20.878;2023-02-04T07:14:05;101251.21;;;-3.04;78.71
50682;BME280;36779;52.168;20.878;2023-02-04T07:16:37;101254.89;;;-3.05;78.77
50682;BME280;36779;52.168;20.878;2023-02-04T07:19:05;101261.50;;;-3.05;78.69
50682;BME280;36779;52.168;20.878;2023-02-04T07:21:35;101264.90;;;-3.08;78.72
50682;BME280;36779;52.168;20.878;2023-02-04T07:24:05;101268.61;;;-3.10;78.73
50682;BME280;36779;52.168;20.878;2023-02-04T07:26:35;101273.42;;;-3.13;78.74
50682;BME280;36779;52.168;20.878;2023-02-04T07:29:04;101286.89;;;-3.15;78.69
50682;BME280;36779;52.168;20.878;2023-02-04T07:31:42;101295.45;;;-3.16;78.61
50682;BME280;36779;52.168;20.878;2023-02-04T07:34:13;101304.15;;;-3.16;78.63
50682;BME280;36779;52.168;20.878;2023-02-04T07:36:42;101308.34;;;-3.17;78.69
50682;BME280;36779;52.168;20.878;2023-02-04T07:39:12;101315.83;;;-3.17;78.61
50682;BME280;36779;52.168;20.878;2023-02-04T07:41:44;101318.82;;;-3.18;78.63
50682;BME280;36779;52.168;20.878;2023-02-04T07:44:14;101322.30;;;-3.18;78.84
50682;BME280;36779;52.168;20.878;2023-02-04T07:46:43;101325.07;;;-3.18;78.67
50682;BME280;36779;52.168;20.878;2023-02-04T07:49:12;101328.70;;;-3.17;78.82
50682;BME280;36779;52.168;20.878;2023-02-04T07:51:41;101337.71;;;-3.17;78.70
50682;BME280;36779;52.168;20.878;2023-02-04T07:54:10;101337.73;;;-3.17;78.66
50682;BME280;36779;52.168;20.878;2023-02-04T07:56:39;101341.73;;;-3.17;78.70
50682;BME280;36779;52.168;20.878;2023-02-04T07:59:11;101346.61;;;-3.18;78.66
50682;BME280;36779;52.168;20.878;2023-02-04T08:01:42;101354.07;;;-3.17;78.85
50682;BME280;36779;52.168;20.878;2023-02-04T08:04:12;101356.83;;;-3.17;78.81
50682;BME280;36779;52.168;20.878;2023-02-04T08:06:44;101360.46;;;-3.15;78.78
50682;BME280;36779;52.168;20.878;2023-02-04T08:09:14;101363.41;;;-3.15;78.78
50682;BME280;36779;52.168;20.878;2023-02-04T08:11:43;101369.66;;;-3.15;78.90
50682;BME280;36779;52.168;20.878;2023-02-04T08:14:12;101377.09;;;-3.14;78.89
50682;BME280;36779;52.168;20.878;2023-02-04T08:16:41;101375.50;;;-3.13;78.89
50682;BME280;36779;52.168;20.878;2023-02-04T08:19:10;101376.65;;;-3.11;78.77
50682;BME280;36779;52.168;20.878;2023-02-04T08:21:40;101380.55;;;-3.08;78.72
50682;BME280;36779;52.168;20.878;2023-02-04T08:24:09;101384.97;;;-3.05;78.66
50682;BME280;36779;52.168;20.878;2023-02-04T08:26:38;101387.86;;;-3.03;78.78
50682;BME280;36779;52.168;20.878;2023-02-04T08:29:08;101393.05;;;-3.01;78.73
50682;BME280;36779;52.168;20.878;2023-02-04T08:31:38;101394.56;;;-3.00;78.80
50682;BME280;36779;52.168;20.878;2023-02-04T08:34:08;101398.95;;;-2.96;78.85
50682;BME280;36779;52.168;20.878;2023-02-04T08:36:41;101405.13;;;-2.83;79.10
50682;BME280;36779;52.168;20.878;2023-02-04T08:39:13;101414.64;;;-2.56;79.30
50682;BME280;36779;52.168;20.878;2023-02-04T08:41:44;101418.72;;;-2.29;79.08
50682;BME280;36779;52.168;20.878;2023-02-04T08:44:13;101425.30;;;-2.08;78.84
50682;BME280;36779;52.168;20.878;2023-02-04T08:46:42;101429.42;;;-2.07;78.49
50682;BME280;36779;52.168;20.878;2023-02-04T08:49:12;101437.36;;;-2.05;78.51
50682;BME280;36779;52.168;20.878;2023-02-04T08:51:41;101435.86;;;-2.06;78.31
50682;BME280;36779;52.168;20.878;2023-02-04T08:54:10;101438.25;;;-2.10;78.16
50682;BME280;36779;52.168;20.878;2023-02-04T08:56:39;101439.59;;;-2.08;78.43
50682;BME280;36779;52.168;20.878;2023-02-04T08:59:08;101438.59;;;-1.81;78.61
50682;BME280;36779;52.168;20.878;2023-02-04T09:01:37;101438.33;;;-1.25;78.87
50682;BME280;36779;52.168;20.878;2023-02-04T09:04:07;101443.62;;;-0.75;78.84
50682;BME280;36779;52.168;20.878;2023-02-04T09:06:36;101450.73;;;-0.52;78.13
50682;BME280;36779;52.168;20.878;2023-02-04T09:09:05;101450.48;;;-0.59;77.59
50682;BME280;36779;52.168;20.878;2023-02-04T09:11:35;101456.34;;;-0.70;77.23
50682;BME280;36779;52.168;20.878;2023-02-04T09:14:04;101456.85;;;-0.83;77.23
50682;BME280;36779;52.168;20.878;2023-02-04T09:16:34;101460.00;;;-0.91;77.36
50682;BME280;36779;52.168;20.878;2023-02-04T09:19:04;101471.71;;;-1.00;77.27
50682;BME280;36779;52.168;20.878;2023-02-04T09:21:33;101466.46;;;-1.08;77.43
50682;BME280;36779;52.168;20.878;2023-02-04T09:24:03;101464.40;;;-1.14;77.77
50682;BME280;36779;52.168;20.878;2023-02-04T09:26:32;101458.80;;;-1.18;77.77
50682;BME280;36779;52.168;20.878;2023-02-04T09:29:02;101459.30;;;-1.22;77.80
50682;BME280;36779;52.168;20.878;2023-02-04T09:31:32;101457.77;;;-1.27;77.85
50682;BME280;36779;52.168;20.878;2023-02-04T09:34:02;101461.73;;;-1.30;78.03
50682;BME280;36779;52.168;20.878;2023-02-04T09:36:31;101464.80;;;-1.33;77.94
50682;BME280;36779;52.168;20.878;2023-02-04T09:39:06;101472.53;;;-1.39;77.88
50682;BME280;36779;52.168;20.878;2023-02-04T09:41:38;101479.91;;;-1.45;77.91
50682;BME280;36779;52.168;20.878;2023-02-04T09:44:12;101489.25;;;-1.48;77.96
50682;BME280;36779;52.168;20.878;2023-02-04T09:46:46;101501.80;;;-1.48;77.90
50682;BME280;36779;52.168;20.878;2023-02-04T09:49:16;101501.39;;;-1.50;78.11
50682;BME280;36779;52.168;20.878;2023-02-04T09:51:46;101502.92;;;-1.54;77.95
50682;BME280;36779;52.168;20.878;2023-02-04T09:54:18;101504.95;;;-1.56;78.00
50682;BME280;36779;52.168;20.878;2023-02-04T09:56:47;101507.07;;;-1.57;77.97
50682;BME280;36779;52.168;20.878;2023-02-04T09:59:19;101511.99;;;-1.58;77.83
50682;BME280;36779;52.168;20.878;2023-02-04T10:01:53;101508.77;;;-1.56;77.90
50682;BME280;36779;52.168;20.878;2023-02-04T10:04:23;101509.09;;;-1.47;77.96
50682;BME280;36779;52.168;20.878;2023-02-04T10:06:52;101511.56;;;-1.06;78.58
50682;BME280;36779;52.168;20.878;2023-02-04T10:09:26;101519.18;;;-0.49;78.86
50682;BME280;36779;52.168;20.878;2023-02-04T10:11:55;101525.31;;;0.00;78.50
50682;BME280;36779;52.168;20.878;2023-02-04T10:14:24;101528.39;;;0.38;78.01
50682;BME280;36779;52.168;20.878;2023-02-04T10:16:55;101522.27;;;0.76;77.65
50682;BME280;36779;52.168;20.878;2023-02-04T10:19:29;101524.64;;;1.04;77.20
50682;BME280;36779;52.168;20.878;2023-02-04T10:21:59;101524.23;;;1.26;76.82
50682;BME280;36779;52.168;20.878;2023-02-04T10:24:28;101531.08;;;1.48;76.59
50682;BME280;36779;52.168;20.878;2023-02-04T10:27:08;101527.45;;;1.64;76.26
50682;BME280;36779;52.168;20.878;2023-02-04T10:29:38;101530.50;;;1.87;76.17
50682;BME280;36779;52.168;20.878;2023-02-04T10:32:29;101537.86;;;1.98;75.82
50682;BME280;36779;52.168;20.878;2023-02-04T10:35:01;101538.14;;;2.09;75.50
50682;BME280;36779;52.168;20.878;2023-02-04T10:37:31;101537.77;;;1.92;75.01
50682;BME280;36779;52.168;20.878;2023-02-04T10:40:01;101544.38;;;1.93;75.32
50682;BME280;36779;52.168;20.878;2023-02-04T10:42:33;101549.70;;;1.82;74.99
50682;BME280;36779;52.168;20.878;2023-02-04T10:45:03;101551.92;;;1.80;75.53
50682;BME280;36779;52.168;20.878;2023-02-04T10:47:32;101556.39;;;1.85;75.44
50682;BME280;36779;52.168;20.878;2023-02-04T10:50:06;101563.33;;;1.83;75.50
50682;BME280;36779;52.168;20.878;2023-02-04T10:52:44;101562.83;;;1.82;75.80
50682;BME280;36779;52.168;20.878;2023-02-04T10:55:19;101566.75;;;1.95;75.66
50682;BME280;36779;52.168;20.878;2023-02-04T10:57:50;101562.66;;;1.61;74.76
50682;BME280;36779;52.168;20.878;2023-02-04T11:00:23;101566.30;;;1.11;74.46
50682;BME280;36779;52.168;20.878;2023-02-04T11:02:57;101569.58;;;0.67;74.79
50682;BME280;36779;52.168;20.878;2023-02-04T11:05:31;101575.17;;;0.32;75.04
50682;BME280;36779;52.168;20.878;2023-02-04T11:08:01;101570.75;;;0.01;75.28
50682;BME280;36779;52.168;20.878;2023-02-04T11:10:32;101567.12;;;-0.21;75.55
50682;BME280;36779;52.168;20.878;2023-02-04T11:13:04;101562.36;;;-0.33;76.03
50682;BME280;36779;52.168;20.878;2023-02-04T11:15:44;101559.69;;;-0.23;76.83
50682;BME280;36779;52.168;20.878;2023-02-04T11:18:28;101558.34;;;-0.24;76.57
50682;BME280;36779;52.168;20.878;2023-02-04T11:21:00;101556.65;;;-0.30;76.59
50682;BME280;36779;52.168;20.878;2023-02-04T11:23:35;101555.90;;;-0.37;76.66
50682;BME280;36779;52.168;20.878;2023-02-04T11:26:08;101560.59;;;-0.28;77.09
50682;BME280;36779;52.168;20.878;2023-02-04T11:29:06;101560.52;;;-0.39;76.53
50682;BME280;36779;52.168;20.878;2023-02-04T11:31:44;101565.64;;;-0.53;76.64
50682;BME280;36779;52.168;20.878;2023-02-04T11:34:44;101566.48;;;-0.56;76.84
50682;BME280;36779;52.168;20.878;2023-02-04T11:37:18;101565.66;;;-0.54;76.98
50682;BME280;36779;52.168;20.878;2023-02-04T11:39:58;101575.07;;;-0.53;76.78
50682;BME280;36779;52.168;20.878;2023-02-04T11:42:38;101577.25;;;-0.64;76.52
50682;BME280;36779;52.168;20.878;2023-02-04T11:45:14;101578.91;;;-0.70;76.84
50682;BME280;36779;52.168;20.878;2023-02-04T11:47:44;101581.69;;;-0.75;76.76
50682;BME280;36779;52.168;20.878;2023-02-04T11:50:16;101575.63;;;-0.80;76.76
50682;BME280;36779;52.168;20.878;2023-02-04T11:52:47;101575.83;;;-0.72;77.24
50682;BME280;36779;52.168;20.878;2023-02-04T11:55:16;101576.22;;;-0.64;76.91
50682;BME280;36779;52.168;20.878;2023-02-04T11:57:50;101579.95;;;-0.75;76.69
50682;BME280;36779;52.168;20.878;2023-02-04T12:00:23;101581.73;;;-0.84;76.49
50682;BME280;36779;52.168;20.878;2023-02-04T12:02:56;101584.92;;;-0.99;76.34
50682;BME280;36779;52.168;20.878;2023-02-04T12:05:38;101587.45;;;-1.10;76.47
50682;BME280;36779;52.168;20.878;2023-02-04T12:08:21;101587.27;;;-1.06;76.84
50682;BME280;36779;52.168;20.878;2023-02-04T12:11:00;101587.67;;;-1.03;76.81
50682;BME280;36779;52.168;20.878;2023-02-04T12:13:31;101587.03;;;-1.00;76.70
50682;BME280;36779;52.168;20.878;2023-02-04T12:16:02;101586.96;;;-0.98;76.76
50682;BME280;36779;52.168;20.878;2023-02-04T12:18:33;101585.02;;;-1.02;76.66
50682;BME280;36779;52.168;20.878;2023-02-04T12:21:02;101589.63;;;-1.08;76.50
50682;BME280;36779;52.168;20.878;2023-02-04T12:23:32;101590.06;;;-1.10;76.50
50682;BME280;36779;52.168;20.878;2023-02-04T12:26:01;101593.20;;;-1.15;76.48
50682;BME280;36779;52.168;20.878;2023-02-04T12:28:31;101594.20;;;-1.14;76.75
50682;BME280;36779;52.168;20.878;2023-02-04T12:31:00;101603.11;;;-1.14;76.68
50682;BME280;36779;52.168;20.878;2023-02-04T12:33:31;101604.25;;;-1.16;76.63
50682;BME280;36779;52.168;20.878;2023-02-04T12:36:00;101603.84;;;-1.20;76.60
50682;BME280;36779;52.168;20.878;2023-02-04T12:38:30;101612.15;;;-1.23;76.48
50682;BME280;36779;52.168;20.878;2023-02-04T12:40:59;101611.89;;;-1.30;76.48
50682;BME280;36779;52.168;20.878;2023-02-04T12:43:27;101617.94;;;-1.33;76.63
50682;BME280;36779;52.168;20.878;2023-02-04T12:45:59;101620.56;;;-1.38;76.52
50682;BME280;36779;52.168;20.878;2023-02-04T12:48:30;101622.67;;;-1.38;76.52
50682;BME280;36779;52.168;20.878;2023-02-04T12:50:59;101621.79;;;-1.38;76.67
50682;BME280;36779;52.168;20.878;2023-02-04T12:53:28;101617.92;;;-1.42;76.48
50682;BME280;36779;52.168;20.878;2023-02-04T12:55:58;101614.89;;;-1.45;76.46
50682;BME280;36779;52.168;20.878;2023-02-04T12:58:27;101616.16;;;-1.47;76.56